createdAt,value
2024-04-15T00:02:27.007Z,5.30
2024-04-15T00:04:55.011Z,5.10
2024-04-15T00:07:22.883Z,5.10
2024-04-15T00:09:50.941Z,4.90
2024-04-15T00:12:18.984Z,5.00
2024-04-15T00:14:46.849Z,4.70
2024-04-15T00:17:14.757Z,4.50
2024-04-15T00:19:42.773Z,5.10
2024-04-15T00:22:10.850Z,4.80
2024-04-15T00:24:39.101Z,4.30
2024-04-15T00:27:07.025Z,4.30
2024-04-15T00:29:35.107Z,4.90
2024-04-15T00:32:03.347Z,4.60
2024-04-15T00:34:32.934Z,4.20
2024-04-15T00:37:01.124Z,5.30
2024-04-15T00:39:29.236Z,4.50
2024-04-15T00:41:57.405Z,5.00
2024-04-15T00:44:34.942Z,4.50
2024-04-15T00:47:04.359Z,5.70
2024-04-15T00:49:34.971Z,4.80
2024-04-15T00:52:04.963Z,5.30
2024-04-15T00:54:35.190Z,5.00
2024-04-15T00:57:04.168Z,4.80
2024-04-15T00:59:34.518Z,5.00
2024-04-15T01:02:02.860Z,4.70
2024-04-15T01:04:31.026Z,4.90
2024-04-15T01:06:59.460Z,4.60
2024-04-15T01:09:27.336Z,4.30
2024-04-15T01:11:55.484Z,4.20
2024-04-15T01:14:23.426Z,4.00
2024-04-15T01:16:51.385Z,4.10
2024-04-15T01:19:19.536Z,4.10
2024-04-15T01:21:47.644Z,4.20
2024-04-15T01:24:15.849Z,4.30
2024-04-15T01:26:50.123Z,3.90
2024-04-15T01:29:18.007Z,4.00
2024-04-15T01:31:45.868Z,4.50
2024-04-15T01:34:13.867Z,4.60
2024-04-15T01:36:42.033Z,4.80
2024-04-15T01:39:10.669Z,4.60
2024-04-15T01:41:39.000Z,4.20
2024-04-15T01:44:07.340Z,4.60
2024-04-15T01:46:35.205Z,4.20
2024-04-15T01:49:03.644Z,4.20
2024-04-15T01:51:31.599Z,4.70
2024-04-15T01:54:00.143Z,4.30
2024-04-15T01:56:28.024Z,4.70
2024-04-15T01:58:55.969Z,4.30
2024-04-15T02:01:23.963Z,4.70
2024-04-15T02:03:52.268Z,4.50
2024-04-15T02:06:20.275Z,4.60
2024-04-15T02:08:48.388Z,4.60
2024-04-15T02:11:16.215Z,4.40
2024-04-15T02:13:44.306Z,4.30
2024-04-15T02:16:12.387Z,4.70
2024-04-15T02:18:40.808Z,4.30
2024-04-15T02:21:09.003Z,4.90
2024-04-15T02:23:37.150Z,4.40
2024-04-15T02:26:05.042Z,4.20
2024-04-15T02:28:33.062Z,4.30
2024-04-15T02:31:01.824Z,4.80
2024-04-15T02:33:30.138Z,5.00
2024-04-15T02:35:58.284Z,4.50
2024-04-15T02:38:26.363Z,4.50
2024-04-15T02:40:56.064Z,4.80
2024-04-15T02:43:24.311Z,4.00
2024-04-15T02:45:52.188Z,4.40
2024-04-15T02:48:20.231Z,4.60
2024-04-15T02:50:48.457Z,4.20
2024-04-15T02:53:16.422Z,4.60
2024-04-15T02:55:44.296Z,4.70
2024-04-15T02:58:12.323Z,5.10
2024-04-15T03:00:40.601Z,4.90
2024-04-15T03:03:08.619Z,5.10
2024-04-15T03:05:46.769Z,5.60
2024-04-15T03:08:14.828Z,5.40
2024-04-15T03:10:42.855Z,4.50
2024-04-15T03:13:10.876Z,5.70
2024-04-15T03:15:38.937Z,5.60
2024-04-15T03:18:06.899Z,4.50
2024-04-15T03:20:35.344Z,4.40
2024-04-15T03:23:03.864Z,4.20
2024-04-15T03:25:31.701Z,4.70
2024-04-15T03:27:59.784Z,4.60
2024-04-15T03:30:27.911Z,4.20
2024-04-15T03:32:56.207Z,4.70
2024-04-15T03:35:24.333Z,4.60
2024-04-15T03:37:52.145Z,6.30
2024-04-15T03:40:20.087Z,4.90
2024-04-15T03:42:49.345Z,4.20
2024-04-15T03:45:18.101Z,4.50
2024-04-15T03:47:46.618Z,4.10
2024-04-15T03:50:14.786Z,4.60
2024-04-15T03:52:42.654Z,4.80
2024-04-15T03:55:10.574Z,5.10
2024-04-15T03:57:39.398Z,5.20
2024-04-15T04:00:08.590Z,5.50
2024-04-15T04:02:36.660Z,4.70
2024-04-15T04:05:06.568Z,4.70
2024-04-15T04:07:38.764Z,4.70
2024-04-15T04:10:09.753Z,4.40
2024-04-15T04:12:37.832Z,4.90
2024-04-15T04:15:06.439Z,5.10
2024-04-15T04:17:34.526Z,5.10
2024-04-15T04:20:03.011Z,4.60
2024-04-15T04:22:31.424Z,5.00
2024-04-15T04:24:59.546Z,5.30
2024-04-15T04:27:28.503Z,5.70
2024-04-15T04:29:56.690Z,5.20
2024-04-15T04:32:25.087Z,5.40
2024-04-15T04:34:53.274Z,5.40
2024-04-15T04:37:21.194Z,6.30
2024-04-15T04:39:51.794Z,6.20
2024-04-15T04:42:19.882Z,5.90
2024-04-15T04:44:48.060Z,6.30
2024-04-15T04:47:17.188Z,6.40
2024-04-15T04:49:45.397Z,6.50
2024-04-15T04:52:13.442Z,6.10
2024-04-15T04:54:41.608Z,7.50
2024-04-15T04:57:10.020Z,6.90
2024-04-15T04:59:38.891Z,6.50
2024-04-15T05:02:08.004Z,6.70
2024-04-15T05:04:36.421Z,6.70
2024-04-15T05:07:04.714Z,5.70
2024-04-15T05:09:32.929Z,5.90
2024-04-15T05:12:00.950Z,6.10
2024-04-15T05:14:28.802Z,6.70
2024-04-15T05:16:56.664Z,6.20
2024-04-15T05:19:24.908Z,7.40
2024-04-15T05:21:53.271Z,7.40
2024-04-15T05:24:21.166Z,6.60
2024-04-15T05:26:49.065Z,8.40
2024-04-15T05:29:17.400Z,8.10
2024-04-15T05:31:45.478Z,7.70
2024-04-15T05:34:13.671Z,6.70
2024-04-15T05:36:41.937Z,5.90
2024-04-15T05:39:09.946Z,7.00
2024-04-15T05:41:37.901Z,7.00
2024-04-15T05:44:07.705Z,6.60
2024-04-15T05:46:47.744Z,4.30
2024-04-15T05:49:15.798Z,4.20
2024-04-15T05:51:44.970Z,4.10
2024-04-15T05:54:13.455Z,4.40
2024-04-15T05:56:41.683Z,4.60
2024-04-15T05:59:09.822Z,4.50
2024-04-15T06:01:37.884Z,4.60
2024-04-15T06:04:07.024Z,4.60
2024-04-15T06:06:35.179Z,4.80
2024-04-15T06:09:03.455Z,4.20
2024-04-15T06:11:31.669Z,4.70
2024-04-15T06:13:59.793Z,4.20
2024-04-15T06:16:27.962Z,4.40
2024-04-15T06:18:55.998Z,4.60
2024-04-15T06:21:24.216Z,4.30
2024-04-15T06:23:52.024Z,3.70
2024-04-15T06:26:20.121Z,4.00
2024-04-15T06:28:48.144Z,3.90
2024-04-15T06:31:16.263Z,3.90
2024-04-15T06:33:44.262Z,4.60
2024-04-15T06:36:12.569Z,4.20
2024-04-15T06:38:40.425Z,4.20
2024-04-15T06:41:08.492Z,4.10
2024-04-15T06:43:36.858Z,4.00
2024-04-15T06:46:04.938Z,3.90
2024-04-15T06:48:33.228Z,4.00
2024-04-15T06:51:02.037Z,4.10
2024-04-15T06:53:30.163Z,4.00
2024-04-15T06:55:58.310Z,4.20
2024-04-15T06:58:27.808Z,4.90
2024-04-15T07:00:58.994Z,4.00
2024-04-15T07:03:27.252Z,3.90
2024-04-15T07:05:55.539Z,3.80
2024-04-15T07:08:23.443Z,3.70
2024-04-15T07:10:53.060Z,3.40
2024-04-15T07:13:21.053Z,3.70
2024-04-15T07:15:49.850Z,3.20
2024-04-15T07:18:17.924Z,3.40
2024-04-15T07:20:47.376Z,3.20
2024-04-15T07:23:15.417Z,3.10
2024-04-15T07:25:43.534Z,3.30
2024-04-15T07:28:11.489Z,2.90
2024-04-15T07:30:39.521Z,3.40
2024-04-15T07:33:07.955Z,3.30
2024-04-15T07:35:37.139Z,3.20
2024-04-15T07:38:05.470Z,3.40
2024-04-15T07:40:33.515Z,3.30
2024-04-15T07:43:01.994Z,2.60
2024-04-15T07:45:30.073Z,2.50
2024-04-15T07:47:57.990Z,2.60
2024-04-15T07:50:27.529Z,3.00
2024-04-15T07:52:55.724Z,3.00
2024-04-15T07:55:24.032Z,2.60
2024-04-15T07:57:52.236Z,2.80
2024-04-15T08:00:20.535Z,2.80
2024-04-15T08:02:48.907Z,2.40
2024-04-15T08:05:19.307Z,2.50
2024-04-15T08:07:47.366Z,2.90
2024-04-15T08:10:15.922Z,2.70
2024-04-15T08:12:46.255Z,2.40
2024-04-15T08:15:14.879Z,2.50
2024-04-15T08:17:44.198Z,2.60
2024-04-15T08:20:12.340Z,2.60
2024-04-15T08:22:42.006Z,2.70
2024-04-15T08:25:10.350Z,2.90
2024-04-15T08:27:38.698Z,3.00
2024-04-15T08:30:07.925Z,2.70
2024-04-15T08:32:37.597Z,2.40
2024-04-15T08:35:06.177Z,2.70
2024-04-15T08:37:34.181Z,2.40
2024-04-15T08:40:02.260Z,2.60
2024-04-15T08:42:54.538Z,2.30
2024-04-15T08:45:25.028Z,2.20
2024-04-15T08:47:54.804Z,2.30
2024-04-15T08:50:24.335Z,2.30
2024-04-15T08:52:54.886Z,2.40
2024-04-15T08:55:24.858Z,2.10
2024-04-15T08:57:54.068Z,2.40
2024-04-15T09:00:23.418Z,2.30
2024-04-15T09:02:55.223Z,2.40
2024-04-15T09:05:23.655Z,2.60
2024-04-15T09:07:51.921Z,2.90
2024-04-15T09:10:20.474Z,2.30
2024-04-15T09:12:49.528Z,2.20
2024-04-15T09:15:23.904Z,2.80
2024-04-15T09:17:53.785Z,2.40
2024-04-15T09:20:34.943Z,2.60
2024-04-15T09:23:11.304Z,2.30
2024-04-15T09:25:39.822Z,2.10
2024-04-15T09:28:08.011Z,2.10
2024-04-15T09:30:36.088Z,2.40
2024-04-15T09:33:06.771Z,2.70
2024-04-15T09:35:35.037Z,2.00
2024-04-15T09:38:04.531Z,2.10
2024-04-15T09:40:34.745Z,2.40
2024-04-15T09:43:04.400Z,2.20
2024-04-15T09:45:33.075Z,2.50
2024-04-15T09:48:01.976Z,2.30
2024-04-15T09:50:33.061Z,2.10
2024-04-15T09:53:02.468Z,2.40
2024-04-15T09:55:35.001Z,2.70
2024-04-15T09:58:04.688Z,2.00
2024-04-15T10:00:36.370Z,1.80
2024-04-15T10:03:14.606Z,1.70
2024-04-15T10:05:45.691Z,2.00
2024-04-15T10:08:14.910Z,1.50
2024-04-15T10:10:43.916Z,1.80
2024-04-15T10:13:12.483Z,1.90
2024-04-15T10:15:41.230Z,1.90
2024-04-15T10:18:13.714Z,1.80
2024-04-15T10:20:44.058Z,1.90
2024-04-15T10:23:16.920Z,1.80
2024-04-15T10:25:45.314Z,2.00
2024-04-15T10:28:16.207Z,1.70
2024-04-15T10:30:48.225Z,1.80
2024-04-15T10:33:21.223Z,1.50
2024-04-15T10:35:53.285Z,1.60
2024-04-15T10:38:21.664Z,1.70
2024-04-15T10:40:50.270Z,1.80
2024-04-15T10:43:20.096Z,1.70
2024-04-15T10:45:49.623Z,1.60
2024-04-15T10:48:18.207Z,1.40
2024-04-15T10:50:46.614Z,1.60
2024-04-15T10:53:16.290Z,1.60
2024-04-15T10:55:44.506Z,1.50
2024-04-15T10:58:13.993Z,1.50
2024-04-15T11:00:45.930Z,1.50
2024-04-15T11:03:14.373Z,1.30
2024-04-15T11:05:44.270Z,1.10
2024-04-15T11:08:14.887Z,1.50
2024-04-15T11:10:43.931Z,1.70
2024-04-15T11:13:12.498Z,1.40
2024-04-15T11:15:41.511Z,1.60
2024-04-15T11:18:16.910Z,1.70
2024-04-15T11:20:45.259Z,1.80
2024-04-15T11:23:14.499Z,1.70
2024-04-15T11:25:45.021Z,1.60
2024-04-15T11:28:17.832Z,1.60
2024-04-15T11:30:48.279Z,1.50
2024-04-15T11:33:17.600Z,1.20
2024-04-15T11:35:50.067Z,1.60
2024-04-15T11:38:21.519Z,1.20
2024-04-15T11:40:52.180Z,1.20
2024-04-15T11:43:21.499Z,1.10
2024-04-15T11:45:57.618Z,1.60
2024-04-15T11:48:26.620Z,1.50
2024-04-15T11:50:56.134Z,1.50
2024-04-15T11:53:27.071Z,1.70
2024-04-15T11:55:55.725Z,1.60
2024-04-15T11:58:24.294Z,1.90
2024-04-15T12:00:53.535Z,2.30
2024-04-15T12:03:22.459Z,1.70
2024-04-15T12:05:54.396Z,2.20
2024-04-15T12:08:23.211Z,1.30
2024-04-15T12:10:53.356Z,1.60
2024-04-15T12:13:21.374Z,1.60
2024-04-15T12:15:49.890Z,3.10
2024-04-15T12:18:17.928Z,1.80
2024-04-15T12:20:46.004Z,1.60
2024-04-15T12:23:14.275Z,1.80
2024-04-15T12:25:42.362Z,1.50
2024-04-15T12:28:10.871Z,1.70
2024-04-15T12:30:39.341Z,2.70
2024-04-15T12:33:07.606Z,1.80
2024-04-15T12:35:35.761Z,2.50
2024-04-15T12:38:04.078Z,1.20
2024-04-15T12:40:32.241Z,1.30
2024-04-15T12:43:00.554Z,1.40
2024-04-15T12:45:28.592Z,2.00
2024-04-15T12:47:56.754Z,1.60
2024-04-15T12:50:25.550Z,1.40
2024-04-15T12:52:54.307Z,2.10
2024-04-15T12:55:22.644Z,2.10
2024-04-15T12:57:51.036Z,2.70
2024-04-15T13:00:19.623Z,1.50
2024-04-15T13:02:47.841Z,1.60
2024-04-15T13:05:16.170Z,1.50
2024-04-15T13:07:44.402Z,2.30
2024-04-15T13:10:13.782Z,1.80
2024-04-15T13:12:46.047Z,1.60
2024-04-15T13:15:14.091Z,2.40
2024-04-15T13:17:42.169Z,1.90
2024-04-15T13:20:10.778Z,2.10
2024-04-15T13:22:39.218Z,2.00
2024-04-15T13:25:08.643Z,1.90
2024-04-15T13:27:39.319Z,1.90
2024-04-15T13:30:09.961Z,1.90
2024-04-15T13:32:39.433Z,1.50
2024-04-15T13:35:08.215Z,1.60
2024-04-15T13:37:36.501Z,1.80
2024-04-15T13:40:05.851Z,2.60
2024-04-15T13:42:34.079Z,2.20
2024-04-15T13:45:02.287Z,2.40
2024-04-15T13:47:30.531Z,1.70
2024-04-15T13:49:58.490Z,1.90
2024-04-15T13:52:26.603Z,2.30
2024-04-15T13:54:54.957Z,2.20
2024-04-15T13:57:23.218Z,3.70
2024-04-15T13:59:51.461Z,3.10
2024-04-15T14:02:21.711Z,3.10
2024-04-15T14:04:50.997Z,2.30
2024-04-15T14:07:19.073Z,2.60
2024-04-15T14:09:47.467Z,2.00
2024-04-15T14:12:15.405Z,2.00
2024-04-15T14:14:43.920Z,1.70
2024-04-15T14:17:13.458Z,2.10
2024-04-15T14:19:41.677Z,2.00
2024-04-15T14:22:09.958Z,2.40
2024-04-15T14:24:41.588Z,1.70
2024-04-15T14:27:10.776Z,2.20
2024-04-15T14:29:39.946Z,2.00
2024-04-15T14:32:07.876Z,2.10
2024-04-15T14:34:36.031Z,3.40
2024-04-15T14:37:04.774Z,2.50
2024-04-15T14:39:32.871Z,3.30
2024-04-15T14:42:00.855Z,3.00
2024-04-15T14:44:28.876Z,2.30
2024-04-15T14:46:56.747Z,3.00
2024-04-15T14:49:28.175Z,3.50
2024-04-15T14:51:57.414Z,3.90
2024-04-15T14:54:25.665Z,3.40
2024-04-15T14:56:54.283Z,3.60
2024-04-15T14:59:22.713Z,2.30
2024-04-15T15:01:50.836Z,2.20
2024-04-15T15:04:19.510Z,2.20
2024-04-15T15:06:47.685Z,2.50
2024-04-15T15:09:15.850Z,3.00
2024-04-15T15:11:43.969Z,2.50
2024-04-15T15:14:12.112Z,2.70
2024-04-15T15:16:40.766Z,2.50
2024-04-15T15:19:09.771Z,2.80
2024-04-15T15:21:38.204Z,3.00
2024-04-15T15:24:06.163Z,2.60
2024-04-15T15:26:38.605Z,2.60
2024-04-15T15:29:15.307Z,2.40
2024-04-15T15:31:43.703Z,2.60
2024-04-15T15:34:11.736Z,2.50
2024-04-15T15:36:40.601Z,2.70
2024-04-15T15:39:09.367Z,2.70
2024-04-15T15:41:37.894Z,2.70
2024-04-15T15:44:05.781Z,2.10
2024-04-15T15:46:34.131Z,2.70
2024-04-15T15:49:02.196Z,3.10
2024-04-15T15:51:30.434Z,2.30
2024-04-15T15:53:58.598Z,2.60
2024-04-15T15:56:26.626Z,2.20
2024-04-15T15:58:54.983Z,2.10
2024-04-15T16:01:23.064Z,2.10
2024-04-15T16:03:51.394Z,2.30
2024-04-15T16:06:19.578Z,2.70
2024-04-15T16:08:47.663Z,2.60
2024-04-15T16:11:16.298Z,2.70
2024-04-15T16:13:45.715Z,2.90
2024-04-15T16:16:13.983Z,2.60
2024-04-15T16:18:42.120Z,3.10
2024-04-15T16:21:10.290Z,3.20
2024-04-15T16:23:38.144Z,3.00
2024-04-15T16:26:06.262Z,3.00
2024-04-15T16:28:35.005Z,2.50
2024-04-15T16:31:05.349Z,2.80
2024-04-15T16:33:33.603Z,3.10
2024-04-15T16:36:04.214Z,3.00
2024-04-15T16:38:33.098Z,3.60
2024-04-15T16:41:01.535Z,3.80
2024-04-15T16:43:29.555Z,3.40
2024-04-15T16:45:57.882Z,3.90
2024-04-15T16:48:26.192Z,4.30
2024-04-15T16:50:54.979Z,4.40
2024-04-15T16:53:23.394Z,6.20
2024-04-15T16:55:52.850Z,7.70
2024-04-15T16:58:24.659Z,7.50
2024-04-15T17:00:55.153Z,8.20
2024-04-15T17:03:23.866Z,7.70
2024-04-15T17:05:52.280Z,7.20
2024-04-15T17:08:20.425Z,5.60
2024-04-15T17:10:48.590Z,6.40
2024-04-15T17:13:16.869Z,19.50
2024-04-15T17:15:45.509Z,27.30
2024-04-15T17:18:13.732Z,21.60
2024-04-15T17:20:43.161Z,15.60
2024-04-15T17:23:11.214Z,10.00
2024-04-15T17:25:39.509Z,8.10
2024-04-15T17:28:11.690Z,6.90
2024-04-15T17:30:39.885Z,14.00
2024-04-15T17:33:08.879Z,17.90
2024-04-15T17:35:36.785Z,26.60
2024-04-15T17:38:05.137Z,20.40
2024-04-15T17:40:33.217Z,23.80
2024-04-15T17:43:01.840Z,11.20
2024-04-15T17:45:30.247Z,12.30
2024-04-15T17:47:58.594Z,8.50
2024-04-15T17:50:27.185Z,6.50
2024-04-15T17:52:55.382Z,3.90
2024-04-15T17:55:24.026Z,3.20
2024-04-15T17:57:52.990Z,2.60
2024-04-15T18:00:21.088Z,2.90
2024-04-15T18:02:49.407Z,2.80
2024-04-15T18:05:18.210Z,3.30
2024-04-15T18:07:48.412Z,2.60
2024-04-15T18:10:18.431Z,2.70
2024-04-15T18:12:48.214Z,2.70
2024-04-15T18:15:16.668Z,2.20
2024-04-15T18:17:45.234Z,2.70
2024-04-15T18:20:14.492Z,2.80
2024-04-15T18:22:42.715Z,3.20
2024-04-15T18:25:11.249Z,2.80
2024-04-15T18:27:40.362Z,3.30
2024-04-15T18:30:09.587Z,3.00
2024-04-15T18:32:37.925Z,2.50
2024-04-15T18:35:06.839Z,3.10
2024-04-15T18:37:35.244Z,3.50
2024-04-15T18:40:03.415Z,2.90
2024-04-15T18:42:32.488Z,3.10
2024-04-15T18:45:04.650Z,3.10
2024-04-15T18:47:34.525Z,3.30
2024-04-15T18:50:02.793Z,3.00
2024-04-15T18:52:31.447Z,2.40
2024-04-15T18:54:59.942Z,2.80
2024-04-15T18:57:28.328Z,2.60
2024-04-15T18:59:56.565Z,3.10
2024-04-15T19:02:24.785Z,3.00
2024-04-15T19:04:52.779Z,2.70
2024-04-15T19:07:20.793Z,2.50
2024-04-15T19:09:48.945Z,2.90
2024-04-15T19:12:18.116Z,3.00
2024-04-15T19:14:58.464Z,2.90
2024-04-15T19:17:34.028Z,2.90
2024-04-15T19:20:02.364Z,2.60
2024-04-15T19:22:30.700Z,2.80
2024-04-15T19:24:58.969Z,2.40
2024-04-15T19:27:27.267Z,2.50
2024-04-15T19:29:55.742Z,2.40
2024-04-15T19:32:24.408Z,2.70
2024-04-15T19:34:52.751Z,3.00
2024-04-15T19:37:21.205Z,2.60
2024-04-15T19:39:49.572Z,2.30
2024-04-15T19:42:18.944Z,2.20
2024-04-15T19:44:46.807Z,2.60
2024-04-15T19:47:14.987Z,2.60
2024-04-15T19:49:43.029Z,2.60
2024-04-15T19:52:11.578Z,2.70
2024-04-15T19:54:39.790Z,2.50
2024-04-15T19:57:07.910Z,2.80
2024-04-15T19:59:35.941Z,2.70
2024-04-15T20:02:04.688Z,2.40
2024-04-15T20:04:32.720Z,2.80
2024-04-15T20:07:00.918Z,2.50
2024-04-15T20:09:28.840Z,2.60
2024-04-15T20:11:56.743Z,2.50
2024-04-15T20:14:24.833Z,2.50
2024-04-15T20:17:00.325Z,2.70
2024-04-15T20:19:30.350Z,3.30
2024-04-15T20:21:58.619Z,4.50
2024-04-15T20:24:26.808Z,4.30
2024-04-15T20:26:55.030Z,3.90
2024-04-15T20:29:23.919Z,4.80
2024-04-15T20:31:51.795Z,4.10
2024-04-15T20:34:20.073Z,4.40
2024-04-15T20:36:48.230Z,4.40
2024-04-15T20:39:16.317Z,3.80
2024-04-15T20:41:44.166Z,4.80
2024-04-15T20:44:12.138Z,4.80
2024-04-15T20:46:40.597Z,4.20
2024-04-15T20:49:08.773Z,4.30
2024-04-15T20:51:36.772Z,4.10
2024-04-15T20:54:04.832Z,4.30
2024-04-15T20:56:33.117Z,4.70
2024-04-15T20:59:01.187Z,5.50
2024-04-15T21:01:29.489Z,5.00
2024-04-15T21:03:58.399Z,4.40
2024-04-15T21:06:26.644Z,4.00
2024-04-15T21:08:56.091Z,4.20
2024-04-15T21:11:23.976Z,4.20
2024-04-15T21:13:53.471Z,4.00
2024-04-15T21:16:21.307Z,4.00
2024-04-15T21:18:50.124Z,4.30
2024-04-15T21:21:18.052Z,3.50
2024-04-15T21:23:45.875Z,4.40
2024-04-15T21:26:14.167Z,5.00
2024-04-15T21:28:42.154Z,4.50
2024-04-15T21:31:10.145Z,4.70
2024-04-15T21:33:38.226Z,4.40
2024-04-15T21:36:08.426Z,4.90
2024-04-15T21:38:36.393Z,4.20
2024-04-15T21:41:04.748Z,5.60
2024-04-15T21:43:32.949Z,5.20
2024-04-15T21:46:00.822Z,5.50
2024-04-15T21:48:29.070Z,5.70
2024-04-15T21:50:57.323Z,5.10
2024-04-15T21:53:25.728Z,5.50
2024-04-15T21:55:54.095Z,5.40
2024-04-15T21:58:22.111Z,4.90
2024-04-15T22:00:50.505Z,5.20
2024-04-15T22:03:18.688Z,5.90
2024-04-15T22:05:46.951Z,4.70
2024-04-15T22:08:14.894Z,4.40
2024-04-15T22:10:42.979Z,4.90
2024-04-15T22:13:11.006Z,4.90
2024-04-15T22:15:39.289Z,4.30
2024-04-15T22:18:08.190Z,4.60
2024-04-15T22:20:36.153Z,5.80
2024-04-15T22:23:04.770Z,4.80
2024-04-15T22:25:33.191Z,4.70
2024-04-15T22:28:01.266Z,4.40
2024-04-15T22:30:29.277Z,4.80
2024-04-15T22:32:57.471Z,4.70
2024-04-15T22:35:25.914Z,4.70
2024-04-15T22:37:54.035Z,5.30
2024-04-15T22:40:22.679Z,5.40
2024-04-15T22:42:52.703Z,5.00
2024-04-15T22:45:20.655Z,4.30
2024-04-15T22:47:48.701Z,4.60
2024-04-15T22:50:16.943Z,4.20
2024-04-15T22:52:44.739Z,4.40
2024-04-15T22:55:12.567Z,3.90
2024-04-15T22:57:41.015Z,4.00
2024-04-15T23:00:09.745Z,4.20
2024-04-15T23:02:37.633Z,4.00
2024-04-15T23:05:06.025Z,3.80
2024-04-15T23:07:34.259Z,4.20
2024-04-15T23:10:02.378Z,4.70
2024-04-15T23:12:30.613Z,4.40
2024-04-15T23:14:58.546Z,4.60
2024-04-15T23:17:26.456Z,4.30
2024-04-15T23:19:54.487Z,4.00
2024-04-15T23:22:22.358Z,3.90
2024-04-15T23:24:50.318Z,4.10
2024-04-15T23:27:18.337Z,3.90
2024-04-15T23:29:46.425Z,3.60
2024-04-15T23:32:14.377Z,3.50
2024-04-15T23:34:42.174Z,3.90
2024-04-15T23:37:10.246Z,4.10
2024-04-15T23:39:38.359Z,4.30
2024-04-15T23:42:06.167Z,4.90
2024-04-15T23:44:34.101Z,5.00
2024-04-15T23:47:20.767Z,4.50
2024-04-15T23:50:07.692Z,4.50
2024-04-15T23:52:54.576Z,5.40
2024-04-15T23:58:10.529Z,4.30
